Time;durP1;ratioP1;P1;durP2;ratioP2;P2;SDS_P1;SDS_P2;PMS_P1;PMS_P2;Temp;Humidity;BMP_temperature;BMP_pressure;BME280_temperature;BME280_humidity;BME280_pressure;Samples;Min_cycle;Max_cycle;Signal;HPM_P1;HPM_P2
2023/03/15 00:01:05;;;;;;;11.28;2.30;;;;;;;3.26;98.18;97939.53;1734143;80;20962;-66
2023/03/15 00:03:36;;;;;;;11.88;2.17;;;;;;;3.25;98.09;97959.33;1738717;80;21623;-64
2023/03/15 00:06:00;;;;;;;7.85;2.27;;;;;;;3.27;98.22;97972.97;1742829;80;21038;-66
2023/03/15 00:08:27;;;;;;;10.58;2.20;;;;;;;3.29;98.20;97981.48;1745236;80;20949;-66
2023/03/15 00:10:53;;;;;;;9.33;1.95;;;;;;;3.29;98.22;97994.38;1735986;80;21052;-67
2023/03/15 00:13:20;;;;;;;8.68;2.35;;;;;;;3.30;98.23;98000.38;1736526;80;21192;-65
2023/03/15 00:15:50;;;;;;;13.15;2.10;;;;;;;3.34;98.29;97997.59;1741029;80;21016;-67
2023/03/15 00:18:18;;;;;;;8.85;2.22;;;;;;;3.36;98.13;97993.21;1722953;81;21094;-65
2023/03/15 00:20:46;;;;;;;11.35;2.12;;;;;;;3.35;98.06;98000.55;1698700;83;21026;-67
2023/03/15 00:23:13;;;;;;;9.90;2.12;;;;;;;3.33;98.15;98001.09;1723561;81;21596;-65
2023/03/15 00:25:43;;;;;;;11.45;1.98;;;;;;;3.34;98.36;98011.78;1718827;81;21042;-66
2023/03/15 00:28:10;;;;;;;9.98;2.30;;;;;;;3.36;98.26;98011.27;1722110;81;21521;-66
2023/03/15 00:30:37;;;;;;;7.45;1.98;;;;;;;3.38;98.22;98020.21;1722271;81;21616;-65
2023/03/15 00:33:07;;;;;;;9.95;2.85;;;;;;;3.41;98.28;98023.11;1722718;81;21466;-66
2023/03/15 00:35:40;;;;;;;11.57;1.92;;;;;;;3.43;98.26;98025.17;1724936;81;21546;-67
2023/03/15 00:38:07;;;;;;;11.55;1.70;;;;;;;3.47;98.00;98021.53;1720070;81;21116;-67
2023/03/15 00:40:36;;;;;;;13.80;1.95;;;;;;;3.47;98.07;98028.81;1723673;81;21014;-65
2023/03/15 00:43:03;;;;;;;13.70;2.27;;;;;;;3.46;97.95;98034.06;1725095;81;22029;-67
2023/03/15 00:45:30;;;;;;;11.45;3.12;;;;;;;3.44;97.87;98035.87;1721116;81;21192;-63
2023/03/15 00:47:56;;;;;;;12.47;2.60;;;;;;;3.41;97.81;98039.88;1721947;81;20959;-65
2023/03/15 00:50:23;;;;;;;12.13;2.83;;;;;;;3.42;97.88;98044.13;1723180;81;21014;-65
2023/03/15 00:52:50;;;;;;;6.93;1.80;;;;;;;3.41;97.83;98051.48;1725377;81;20998;-65
2023/03/15 00:55:18;;;;;;;13.98;2.50;;;;;;;3.41;97.86;98043.75;1724192;81;20999;-64
2023/03/15 00:57:46;;;;;;;9.00;2.12;;;;;;;3.42;97.87;98052.72;1724333;81;21017;-63
2023/03/15 01:00:19;;;;;;;15.93;2.35;;;;;;;3.39;97.79;98061.89;1720286;81;21423;-64
2023/03/15 01:02:46;;;;;;;10.72;2.33;;;;;;;3.39;97.70;98067.48;1719461;81;20995;-66
2023/03/15 01:05:14;;;;;;;10.48;2.45;;;;;;;3.35;97.76;98076.66;1721729;81;21062;-66
2023/03/15 01:07:44;;;;;;;14.03;2.58;;;;;;;3.35;97.74;98077.94;1720597;81;20987;-63
2023/03/15 01:10:12;;;;;;;8.80;1.75;;;;;;;3.36;97.75;98086.09;1719564;81;21149;-66
2023/03/15 01:12:38;;;;;;;11.28;2.10;;;;;;;3.36;97.59;98088.66;1720804;81;21465;-66
2023/03/15 01:15:10;;;;;;;7.20;2.20;;;;;;;3.36;97.71;98090.38;1722033;81;21614;-66
2023/03/15 01:17:36;;;;;;;10.98;1.98;;;;;;;3.36;97.71;98098.98;1697024;83;21014;-66
2023/03/15 01:20:05;;;;;;;9.75;2.27;;;;;;;3.36;97.62;98100.28;1697279;83;20992;-66
2023/03/15 01:22:32;;;;;;;16.30;3.02;;;;;;;3.38;97.68;98104.52;1699832;83;21018;-66
2023/03/15 01:24:58;;;;;;;9.68;1.92;;;;;;;3.38;97.59;98100.65;1726007;81;20924;-66
2023/03/15 01:27:25;;;;;;;9.58;1.80;;;;;;;3.36;97.61;98109.73;1723583;81;22076;-66
2023/03/15 01:29:52;;;;;;;15.90;1.72;;;;;;;3.34;97.57;98111.11;1724581;81;21477;-63
2023/03/15 01:32:18;;;;;;;7.75;2.08;;;;;;;3.36;97.66;98111.88;1718290;81;20974;-66
2023/03/15 01:34:45;;;;;;;10.32;1.90;;;;;;;3.33;97.57;98121.05;1721751;81;21112;-66
2023/03/15 01:37:13;;;;;;;15.18;2.80;;;;;;;3.33;97.75;98128.79;1721178;82;22219;-65
2023/03/15 01:39:41;;;;;;;8.48;2.33;;;;;;;3.36;97.68;98129.95;1721923;81;21054;-64
2023/03/15 01:42:10;;;;;;;13.70;2.33;;;;;;;3.34;97.55;98133.03;1720937;81;21553;-66
2023/03/15 01:44:54;;;;;;;5.67;1.52;;;;;;;3.34;97.64;98133.49;1696718;83;20987;-66
2023/03/15 01:47:24;;;;;;;8.75;2.08;;;;;;;3.37;97.70;98135.94;1697287;82;20973;-66
2023/03/15 01:50:07;;;;;;;12.05;2.10;;;;;;;3.38;97.69;98141.92;1723418;81;20979;-66
2023/03/15 01:52:37;;;;;;;18.23;2.20;;;;;;;3.44;97.57;98142.95;1719765;81;20900;-66
2023/03/15 01:55:16;;;;;;;8.55;2.15;;;;;;;3.51;97.52;98143.08;1698358;84;21592;-64
2023/03/15 01:57:54;;;;;;;11.20;1.75;;;;;;;3.56;97.06;98151.46;1673603;84;21020;-66
2023/03/15 02:00:21;;;;;;;8.80;1.80;;;;;;;3.53;96.91;98149.84;1723884;81;20955;-67
2023/03/15 02:02:56;;;;;;;12.55;2.05;;;;;;;3.57;96.96;98153.95;1724429;81;21003;-66
2023/03/15 02:05:34;;;;;;;13.10;2.20;;;;;;;3.59;96.91;98169.39;1721076;81;21089;-65
2023/03/15 02:08:04;;;;;;;13.48;2.80;;;;;;;3.53;97.48;98169.66;1724059;81;20979;-66
2023/03/15 02:10:36;;;;;;;10.30;2.20;;;;;;;3.44;97.60;98172.62;1719567;81;21073;-66
2023/03/15 02:13:03;;;;;;;12.53;2.00;;;;;;;3.57;97.27;98180.22;1726967;81;21010;-65
2023/03/15 02:15:31;;;;;;;9.93;1.82;;;;;;;3.43;97.62;98189.84;1730597;81;20991;-65
2023/03/15 02:17:58;;;;;;;13.70;2.90;;;;;;;3.54;97.72;98189.39;1728182;81;21018;-66
2023/03/15 02:21:00;;;;;;;15.32;2.77;;;;;;;3.65;97.06;98197.51;1737652;81;21022;-66
2023/03/15 02:23:28;;;;;;;10.15;2.30;;;;;;;3.50;97.59;98196.44;1734669;81;21029;-65
2023/03/15 02:26:12;;;;;;;9.58;2.62;;;;;;;3.58;97.40;98199.53;1709810;82;21145;-66
2023/03/15 02:28:40;;;;;;;12.58;2.25;;;;;;;3.69;97.17;98206.78;1730033;81;21030;-65
2023/03/15 02:31:07;;;;;;;14.40;2.30;;;;;;;3.56;97.22;98205.66;1728809;81;21014;-66
2023/03/15 02:33:48;;;;;;;12.77;3.37;;;;;;;3.68;96.97;98212.86;1715100;83;21081;-66
2023/03/15 02:36:20;;;;;;;12.85;1.98;;;;;;;3.57;97.22;98213.31;1732530;81;21520;-65
2023/03/15 02:38:48;;;;;;;15.13;2.58;;;;;;;3.49;97.58;98219.72;1709814;82;20975;-66
2023/03/15 02:41:18;;;;;;;14.45;2.77;;;;;;;3.48;97.69;98230.95;1711210;83;21105;-66
2023/03/15 02:43:48;;;;;;;10.05;2.87;;;;;;;3.53;97.67;98229.02;1701786;83;21049;-64
2023/03/15 02:46:16;;;;;;;15.55;3.15;;;;;;;3.57;96.84;98235.71;1710481;82;21038;-65
2023/03/15 02:48:45;;;;;;;12.13;2.40;;;;;;;3.52;97.33;98241.05;1738229;81;20978;-65
2023/03/15 02:51:26;;;;;;;12.90;2.90;;;;;;;3.39;97.61;98231.31;1707959;83;21051;-64
2023/03/15 02:53:52;;;;;;;13.78;2.35;;;;;;;3.34;97.55;98245.26;1715423;82;20998;-66
2023/03/15 02:56:19;;;;;;;13.80;2.98;;;;;;;3.28;97.62;98249.39;1736313;81;21013;-65
2023/03/15 02:58:46;;;;;;;17.23;3.30;;;;;;;3.22;97.60;98256.09;1706241;83;21159;-66
2023/03/15 03:01:14;;;;;;;13.65;3.00;;;;;;;3.23;97.52;98257.76;1734345;81;21065;-65
2023/03/15 03:03:43;;;;;;;15.88;2.75;;;;;;;3.22;96.79;98265.13;1733753;81;21010;-65
2023/03/15 03:06:12;;;;;;;20.55;2.35;;;;;;;3.21;96.65;98277.61;1730115;81;20965;-66
2023/03/15 03:08:39;;;;;;;11.45;2.62;;;;;;;3.15;96.70;98277.86;1733953;81;21061;-67
2023/03/15 03:11:06;;;;;;;16.40;3.02;;;;;;;3.11;96.78;98277.61;1706739;83;20959;-66
2023/03/15 03:13:34;;;;;;;15.25;2.12;;;;;;;3.07;96.59;98277.33;1726691;81;21102;-66
2023/03/15 03:16:00;;;;;;;8.60;2.75;;;;;;;2.85;97.22;98283.32;1706114;82;21077;-66
2023/03/15 03:18:34;;;;;;;13.25;3.17;;;;;;;2.79;97.47;98292.59;1752589;80;20997;-66
2023/03/15 03:20:58;;;;;;;11.53;2.15;;;;;;;2.80;97.69;98297.28;1743461;80;21013;-66
2023/03/15 03:23:26;;;;;;;9.90;2.42;;;;;;;2.80;97.79;98300.73;1737065;80;20953;-66
2023/03/15 03:25:54;;;;;;;12.25;2.62;;;;;;;2.85;97.92;98310.84;1719578;82;20959;-63
2023/03/15 03:28:24;;;;;;;10.68;2.40;;;;;;;2.89;97.96;98315.84;1746386;81;20971;-66
2023/03/15 03:30:55;;;;;;;12.55;3.33;;;;;;;2.90;97.84;98322.66;1744126;82;21057;-66
2023/03/15 03:33:22;;;;;;;12.03;2.60;;;;;;;2.95;97.99;98325.53;1717497;83;20974;-66
2023/03/15 03:35:49;;;;;;;14.78;2.47;;;;;;;2.99;97.97;98325.78;1755754;81;21551;-65
2023/03/15 03:38:16;;;;;;;15.98;2.95;;;;;;;3.01;97.88;98329.16;1760655;80;21599;-63
2023/03/15 03:40:44;;;;;;;12.15;2.45;;;;;;;3.01;97.83;98336.88;1713584;82;21526;-66
2023/03/15 03:43:11;;;;;;;18.05;2.90;;;;;;;3.03;97.87;98347.98;1750261;80;20990;-64
2023/03/15 03:45:37;;;;;;;9.30;2.37;;;;;;;3.07;97.94;98348.25;1748908;80;21564;-65
2023/03/15 03:48:05;;;;;;;12.68;2.60;;;;;;;3.09;97.96;98357.61;1753083;80;21063;-65
2023/03/15 03:50:31;;;;;;;;;;;;;;;3.12;97.98;98356.66;1749816;81;21454;-66
2023/03/15 03:52:58;;;;;;;11.30;3.00;;;;;;;3.18;98.07;98368.02;1745931;80;20456;-65
2023/03/15 03:55:24;;;;;;;16.07;2.98;;;;;;;3.21;98.03;98367.89;1712234;83;20996;-66
2023/03/15 03:57:52;;;;;;;13.98;3.27;;;;;;;3.25;98.00;98372.47;1692868;82;21085;-66
2023/03/15 04:00:21;;;;;;;11.85;2.52;;;;;;;3.29;98.02;98375.34;1750067;80;21136;-66
2023/03/15 04:02:48;;;;;;;13.62;2.45;;;;;;;3.34;97.99;98385.86;1748084;80;20990;-66
2023/03/15 04:05:14;;;;;;;14.83;2.72;;;;;;;3.34;97.88;98386.32;1749764;80;21519;-65
2023/03/15 04:07:41;;;;;;;7.87;1.85;;;;;;;3.33;97.62;98395.80;1751207;80;21077;-66
2023/03/15 04:10:13;;;;;;;6.15;1.85;;;;;;;3.28;97.51;98408.04;1747992;80;21014;-66
2023/03/15 04:12:38;;;;;;;8.35;1.98;;;;;;;3.25;97.52;98410.73;1741371;80;20994;-65
2023/03/15 04:15:07;;;;;;;9.88;1.75;;;;;;;3.17;97.44;98416.64;1711267;83;21073;-64
2023/03/15 04:17:34;;;;;;;6.33;1.82;;;;;;;3.15;97.55;98427.45;1712128;82;21105;-65
2023/03/15 04:20:00;;;;;;;7.70;1.67;;;;;;;3.11;97.49;98431.06;1715466;83;21002;-66
2023/03/15 04:22:27;;;;;;;11.05;1.95;;;;;;;3.07;97.56;98429.48;1690167;82;21588;-65
2023/03/15 04:24:54;;;;;;;10.93;2.17;;;;;;;2.99;97.32;98428.92;1744358;80;21069;-66
2023/03/15 04:27:22;;;;;;;9.18;1.95;;;;;;;2.90;97.24;98428.36;1722414;82;21117;-66
2023/03/15 04:29:49;;;;;;;10.85;1.75;;;;;;;2.80;97.15;98439.06;1692212;82;21619;-66
2023/03/15 04:32:16;;;;;;;8.57;1.57;;;;;;;2.73;97.29;98444.06;1743425;80;21477;-66
2023/03/15 04:34:43;;;;;;;9.88;1.77;;;;;;;2.63;97.31;98443.53;1709502;83;21034;-65
2023/03/15 04:37:10;;;;;;;7.58;2.20;;;;;;;2.55;97.31;98448.11;1750645;80;21073;-65
2023/03/15 04:39:37;;;;;;;17.65;4.15;;;;;;;2.56;97.56;98454.97;1759026;80;21017;-66
2023/03/15 04:42:06;;;;;;;11.03;2.85;;;;;;;2.51;97.50;98451.70;1740348;80;21089;-66
2023/03/15 04:44:33;;;;;;;11.50;2.00;;;;;;;2.48;97.68;98449.24;1714177;83;21100;-66
2023/03/15 04:46:59;;;;;;;12.18;2.12;;;;;;;2.62;97.79;98446.56;1748997;79;21125;-66
2023/03/15 04:49:26;;;;;;;11.40;2.70;;;;;;;2.72;97.14;98461.27;1755194;80;21112;-65
2023/03/15 04:51:53;;;;;;;12.47;2.83;;;;;;;2.67;96.89;98467.03;1753606;80;21135;-66
2023/03/15 04:54:19;;;;;;;17.52;3.55;;;;;;;2.67;96.90;98472.19;1748115;80;21081;-66
2023/03/15 04:56:46;;;;;;;9.98;2.33;;;;;;;2.61;97.39;98472.41;1750130;80;21042;-66
2023/03/15 04:59:12;;;;;;;9.75;2.30;;;;;;;2.81;96.93;98477.69;1758191;80;21065;-66
2023/03/15 05:01:39;;;;;;;13.32;3.80;;;;;;;2.86;96.71;98482.69;1753329;80;21077;-64
2023/03/15 05:04:05;;;;;;;14.33;3.25;;;;;;;2.90;96.57;98490.23;1753538;80;21112;-66
2023/03/15 05:06:32;;;;;;;10.50;2.30;;;;;;;2.92;96.49;98488.91;1748489;80;21048;-66
2023/03/15 05:08:59;;;;;;;10.23;2.90;;;;;;;2.97;96.49;98487.44;1755582;80;20997;-65
2023/03/15 05:11:26;;;;;;;9.50;2.60;;;;;;;2.99;96.46;98493.39;1750111;80;21658;-66
2023/03/15 05:13:52;;;;;;;11.75;2.80;;;;;;;2.94;96.60;98498.73;1740926;80;21006;-66
2023/03/15 05:16:19;;;;;;;9.35;2.30;;;;;;;2.81;97.19;98495.73;1708032;82;21564;-65
2023/03/15 05:18:46;;;;;;;9.33;2.30;;;;;;;2.78;97.30;98503.58;1725710;81;21026;-65
2023/03/15 05:21:16;;;;;;;8.80;2.20;;;;;;;2.72;97.40;98504.22;1704366;83;21180;-66
2023/03/15 05:23:42;;;;;;;8.30;2.25;;;;;;;2.75;97.62;98506.27;1701019;83;21007;-66
2023/03/15 05:26:13;;;;;;;7.78;2.00;;;;;;;2.77;97.69;98522.50;1730096;81;21104;-65
2023/03/15 05:28:40;;;;;;;8.18;1.98;;;;;;;2.80;97.69;98522.84;1704637;83;21102;-66
2023/03/15 05:31:06;;;;;;;10.20;2.33;;;;;;;2.75;97.40;98550.09;1725268;81;20975;-65
2023/03/15 05:33:33;;;;;;;6.65;1.87;;;;;;;2.75;97.49;98552.66;1732178;81;21247;-66
2023/03/15 05:36:02;;;;;;;10.90;1.40;;;;;;;2.76;97.51;98561.23;1703737;83;20962;-66
2023/03/15 05:38:30;;;;;;;7.37;2.55;;;;;;;2.75;97.35;98557.81;1731499;81;21479;-62
2023/03/15 05:41:00;;;;;;;8.68;2.17;;;;;;;2.70;97.30;98557.12;1727399;82;21029;-63
2023/03/15 05:43:27;;;;;;;3.50;1.55;;;;;;;2.70;97.47;98562.28;1727844;81;20971;-63
2023/03/15 05:45:53;;;;;;;4.33;1.22;;;;;;;2.76;97.58;98562.52;1700156;83;21054;-63
2023/03/15 05:48:20;;;;;;;6.60;1.80;;;;;;;2.76;97.36;98569.80;1677808;83;21121;-63
2023/03/15 05:50:47;;;;;;;4.50;1.60;;;;;;;2.77;97.45;98573.22;1728974;81;21043;-63
2023/03/15 05:53:13;;;;;;;5.33;2.25;;;;;;;2.84;97.56;98587.14;1728807;82;20991;-63
2023/03/15 05:55:40;;;;;;;5.87;1.98;;;;;;;2.89;97.66;98583.97;1727792;81;20998;-63
2023/03/15 05:58:06;;;;;;;6.17;1.82;;;;;;;2.95;97.41;98593.67;1705164;83;21051;-64
2023/03/15 06:00:33;;;;;;;6.95;1.70;;;;;;;3.00;97.55;98605.97;1706138;83;21049;-63
2023/03/15 06:02:59;;;;;;;8.25;1.82;;;;;;;3.07;97.64;98607.42;1733345;81;22388;-62
2023/03/15 06:05:26;;;;;;;4.83;1.67;;;;;;;3.10;97.50;98609.89;1708342;83;21624;-63
2023/03/15 06:07:53;;;;;;;2.33;1.40;;;;;;;3.10;97.46;98620.21;1733954;81;21123;-63
2023/03/15 06:10:19;;;;;;;12.20;2.55;;;;;;;3.18;97.63;98620.80;1731995;81;21012;-63
2023/03/15 06:12:46;;;;;;;6.30;2.37;;;;;;;3.20;97.50;98625.45;1706665;83;21030;-64
2023/03/15 06:15:12;;;;;;;7.80;2.80;;;;;;;3.26;97.66;98629.11;1712344;83;21022;-64
2023/03/15 06:17:42;;;;;;;5.27;2.20;;;;;;;3.32;97.67;98634.05;1711625;82;21110;-63
2023/03/15 06:20:11;;;;;;;8.88;2.35;;;;;;;3.33;97.57;98638.75;1756332;80;21044;-62
2023/03/15 06:22:38;;;;;;;8.18;1.90;;;;;;;3.33;97.61;98648.66;1751946;80;21044;-62
2023/03/15 06:25:09;;;;;;;4.78;2.00;;;;;;;3.38;97.67;98651.50;1713282;83;21517;-62
2023/03/15 06:27:36;;;;;;;5.80;2.00;;;;;;;3.40;97.74;98656.17;1691301;83;20997;-62
2023/03/15 06:30:04;;;;;;;6.50;1.77;;;;;;;3.46;97.82;98667.56;1729869;81;21044;-61
2023/03/15 06:32:31;;;;;;;10.30;2.12;;;;;;;3.40;97.70;98656.17;1728979;81;21000;-62
2023/03/15 06:34:58;;;;;;;7.28;2.77;;;;;;;3.54;97.62;98677.17;1732604;81;21017;-62
2023/03/15 06:37:28;;;;;;;7.62;1.70;;;;;;;3.57;97.68;98685.64;1732482;81;21537;-62
2023/03/15 06:39:55;;;;;;;10.55;2.70;;;;;;;3.64;97.84;98688.86;1731050;81;20998;-62
2023/03/15 06:42:21;;;;;;;4.08;1.90;;;;;;;3.63;97.69;98688.91;1732518;81;20972;-62
2023/03/15 06:44:48;;;;;;;6.78;1.95;;;;;;;3.68;97.89;98691.72;1731881;81;21074;-62
2023/03/15 06:47:15;;;;;;;5.43;2.13;;;;;;;3.76;97.90;98703.91;1732359;81;21145;-62
2023/03/15 06:49:41;;;;;;;5.97;3.00;;;;;;;3.81;97.87;98707.17;1734379;81;21163;-62
2023/03/15 06:52:08;;;;;;;5.53;2.27;;;;;;;3.88;97.90;98704.36;1734850;81;21014;-62
2023/03/15 06:54:36;;;;;;;9.15;2.77;;;;;;;3.97;97.95;98702.72;1732866;81;21046;-62
2023/03/15 06:57:03;;;;;;;7.62;2.60;;;;;;;4.03;97.93;98713.69;1733518;81;21022;-63
2023/03/15 06:59:31;;;;;;;5.40;2.80;;;;;;;4.07;97.83;98717.00;1712339;82;21543;-60
2023/03/15 07:01:57;;;;;;;6.80;2.62;;;;;;;4.08;97.83;98731.59;1734063;81;21548;-62
2023/03/15 07:04:24;;;;;;;4.80;1.77;;;;;;;4.12;97.86;98739.63;1733503;81;21622;-62
2023/03/15 07:06:51;;;;;;;5.12;2.52;;;;;;;4.18;98.04;98733.39;1735236;81;21102;-59
2023/03/15 07:09:19;;;;;;;8.48;2.55;;;;;;;4.25;98.07;98740.84;1689157;83;21476;-60
2023/03/15 07:11:45;;;;;;;9.75;2.30;;;;;;;4.36;98.22;98744.78;1754377;80;20924;-60
2023/03/15 07:14:12;;;;;;;6.72;2.30;;;;;;;4.47;98.30;98752.97;1757993;80;20996;-62
2023/03/15 07:16:39;;;;;;;7.67;2.13;;;;;;;4.50;97.91;98758.02;1757421;80;21116;-63
2023/03/15 07:19:06;;;;;;;9.25;3.02;;;;;;;4.45;97.67;98762.52;1756329;80;21009;-61
2023/03/15 07:21:33;;;;;;;5.55;1.92;;;;;;;4.46;97.87;98759.05;1755122;80;21075;-63
2023/03/15 07:23:59;;;;;;;9.00;2.00;;;;;;;4.55;98.08;98767.74;1750354;80;20983;-62
2023/03/15 07:26:27;;;;;;;7.80;2.02;;;;;;;4.65;97.97;98772.96;1752750;80;20970;-62
2023/03/15 07:28:53;;;;;;;6.55;2.10;;;;;;;4.87;98.14;98766.94;1755128;79;21061;-62
2023/03/15 07:31:21;;;;;;;8.87;2.83;;;;;;;5.40;99.64;98775.58;1756963;80;21203;-63
2023/03/15 07:33:49;;;;;;;6.20;2.50;;;;;;;6.25;100.00;98774.98;1754171;80;21064;-62
2023/03/15 07:36:16;;;;;;;6.80;1.70;;;;;;;6.86;99.99;98768.73;1744711;81;21023;-62
2023/03/15 07:38:43;;;;;;;4.53;1.70;;;;;;;7.22;98.53;98775.66;1721461;83;21537;-64
2023/03/15 07:41:10;;;;;;;6.53;2.30;;;;;;;7.39;98.07;98774.83;1682066;83;21130;-62
2023/03/15 07:43:37;;;;;;;4.87;1.82;;;;;;;7.81;97.56;98777.05;1755378;80;21069;-63
2023/03/15 07:46:06;;;;;;;6.53;1.70;;;;;;;7.76;96.03;98778.20;1720609;83;21100;-62
2023/03/15 07:48:33;;;;;;;10.23;3.00;;;;;;;7.93;97.03;98778.64;1717513;82;21549;-63
2023/03/15 07:51:00;;;;;;;7.03;2.10;;;;;;;8.17;96.92;98777.81;1755944;80;21620;-62
2023/03/15 07:53:27;;;;;;;5.87;2.60;;;;;;;8.40;97.19;98779.22;1754610;80;21080;-63
2023/03/15 07:55:53;;;;;;;7.05;2.30;;;;;;;8.59;96.52;98786.89;1742421;80;20951;-63
2023/03/15 07:58:20;;;;;;;10.27;2.47;;;;;;;8.93;97.69;98789.78;1718105;83;21109;-63
2023/03/15 08:00:47;;;;;;;5.50;2.25;;;;;;;9.37;97.14;98787.75;1752534;80;21022;-63
2023/03/15 08:03:13;;;;;;;6.42;1.55;;;;;;;9.40;96.26;98795.39;1758897;80;21620;-63
2023/03/15 08:05:40;;;;;;;5.20;1.42;;;;;;;9.18;95.31;98799.20;1755370;80;21061;-63
2023/03/15 08:08:07;;;;;;;4.17;1.33;;;;;;;8.73;94.23;98806.02;1752123;80;21108;-63
2023/03/15 08:10:36;;;;;;;5.10;2.20;;;;;;;8.41;95.44;98809.53;1758634;80;21650;-63
2023/03/15 08:13:02;;;;;;;4.22;2.15;;;;;;;8.34;95.78;98814.17;1755877;80;21528;-63
2023/03/15 08:15:28;;;;;;;10.38;2.05;;;;;;;8.28;96.21;98812.73;1758546;80;21600;-63
2023/03/15 08:18:01;;;;;;;4.15;1.55;;;;;;;8.49;96.48;98815.17;1743719;80;21585;-63
2023/03/15 08:20:28;;;;;;;7.55;2.12;;;;;;;8.44;96.05;98818.47;1731470;81;21472;-63
2023/03/15 08:22:58;;;;;;;4.60;2.00;;;;;;;8.46;96.29;98823.14;1679096;84;21089;-63
2023/03/15 08:25:26;;;;;;;9.78;2.10;;;;;;;8.58;96.22;98819.87;1673457;84;21051;-63
2023/03/15 08:27:53;;;;;;;6.85;2.40;;;;;;;8.47;95.83;98833.92;1674639;84;20995;-63
2023/03/15 08:30:21;;;;;;;5.25;2.20;;;;;;;8.41;96.12;98835.08;1720198;81;21102;-63
2023/03/15 08:32:51;;;;;;;5.15;2.08;;;;;;;8.86;96.95;98836.61;1734201;81;21065;-65
2023/03/15 08:35:20;;;;;;;6.03;1.70;;;;;;;9.64;98.70;98840.90;1732338;81;21543;-63
2023/03/15 08:37:47;;;;;;;2.55;1.17;;;;;;;10.19;97.17;98838.58;1738357;81;21034;-64
2023/03/15 08:40:24;;;;;;;4.30;2.08;;;;;;;10.44;96.51;98846.64;1731196;81;21073;-65
2023/03/15 08:42:53;;;;;;;4.25;1.65;;;;;;;10.38;95.65;98849.63;1697120;83;21027;-64
2023/03/15 08:45:22;;;;;;;6.03;2.00;;;;;;;11.31;97.30;98853.41;1673392;84;20948;-64
2023/03/15 08:47:59;;;;;;;4.28;1.50;;;;;;;11.58;97.03;98851.28;1722819;82;20975;-64
2023/03/15 08:50:30;;;;;;;6.33;2.10;;;;;;;13.13;99.54;98850.70;1694488;82;21486;-64
2023/03/15 08:52:58;;;;;;;3.52;1.42;;;;;;;14.60;98.21;98856.50;1733835;82;21024;-67
2023/03/15 08:55:25;;;;;;;4.40;1.90;;;;;;;15.87;97.56;98857.66;1696946;84;21022;-64
2023/03/15 08:57:51;;;;;;;;;;;;;;;16.78;97.57;98862.73;1698176;83;20955;-65
2023/03/15 09:00:21;;;;;;;6.30;2.60;;;;;;;17.72;94.42;98862.84;1729333;81;20166;-65
2023/03/15 09:02:50;;;;;;;5.12;2.33;;;;;;;17.98;96.81;98869.28;1723296;81;21063;-65
2023/03/15 09:05:19;;;;;;;5.20;2.50;;;;;;;18.58;97.26;98869.50;1724579;82;21480;-66
2023/03/15 09:07:46;;;;;;;8.60;1.90;;;;;;;18.86;95.78;98867.26;1729586;81;20909;-65
2023/03/15 09:10:15;;;;;;;4.67;2.42;;;;;;;18.06;93.60;98874.70;1735028;81;21491;-65
2023/03/15 09:12:45;;;;;;;5.33;2.05;;;;;;;17.90;95.59;98887.63;1694977;84;21007;-66
2023/03/15 09:15:13;;;;;;;4.00;1.95;;;;;;;17.63;95.02;98877.71;1669151;84;21071;-66
2023/03/15 09:17:45;;;;;;;4.03;1.70;;;;;;;16.92;93.82;98893.67;1719472;82;21122;-65
2023/03/15 09:20:13;;;;;;;6.17;1.70;;;;;;;16.10;94.89;98889.14;1711873;82;21454;-65
2023/03/15 09:22:42;;;;;;;4.03;1.67;;;;;;;15.36;93.06;98893.82;1708798;82;21058;-65
2023/03/15 09:25:11;;;;;;;6.55;1.77;;;;;;;14.29;93.12;98903.47;1714811;82;21086;-65
2023/03/15 09:27:43;;;;;;;5.10;1.37;;;;;;;13.29;93.24;98902.08;1678806;84;21038;-65
2023/03/15 09:30:14;;;;;;;3.58;2.02;;;;;;;12.33;93.86;98925.30;1709135;82;21045;-66
2023/03/15 09:32:42;;;;;;;7.70;1.25;;;;;;;11.55;93.73;98923.38;1705582;82;21061;-65
2023/03/15 09:35:15;;;;;;;6.83;1.65;;;;;;;10.83;94.24;98918.25;1708045;82;21001;-66
2023/03/15 09:37:41;;;;;;;5.40;1.05;;;;;;;10.85;96.38;98921.61;1705462;82;21121;-66
2023/03/15 09:40:19;;;;;;;4.33;1.30;;;;;;;11.30;95.21;98921.47;1715408;82;21024;-66
2023/03/15 09:43:07;;;;;;;4.70;2.15;;;;;;;12.57;98.16;98923.62;1709333;82;21146;-65
2023/03/15 09:45:42;;;;;;;8.65;2.70;;;;;;;14.41;99.23;98920.91;1697077;82;21666;-65
2023/03/15 09:48:36;;;;;;;7.25;2.67;;;;;;;16.15;96.77;98917.25;1709718;82;21107;-66
2023/03/15 09:51:17;;;;;;;3.30;1.92;;;;;;;17.94;96.47;98929.94;1707838;82;21050;-65
2023/03/15 09:54:07;;;;;;;5.42;2.47;;;;;;;20.23;98.06;98918.34;1707110;82;21042;-64
2023/03/15 09:56:51;;;;;;;8.40;2.58;;;;;;;22.39;97.89;98923.34;1707298;82;21172;-66
2023/03/15 09:59:21;;;;;;;6.78;2.08;;;;;;;24.29;97.75;98910.66;1704380;82;21545;-66
2023/03/15 10:01:48;;;;;;;8.08;2.40;;;;;;;26.18;98.09;98927.09;1707594;82;21100;-66
2023/03/15 10:04:36;;;;;;;6.70;3.30;;;;;;;27.81;96.00;98929.34;1711002;82;21093;-66
2023/03/15 10:07:04;;;;;;;25.82;15.88;;;;;;;28.40;92.69;98934.45;1702432;82;21587;-65
2023/03/15 10:09:33;;;;;;;6.95;4.40;;;;;;;27.56;87.44;98938.91;1697692;82;21080;-64
2023/03/15 10:12:16;;;;;;;7.03;2.60;;;;;;;26.24;90.16;98945.89;1703881;83;21023;-64
2023/03/15 10:15:09;;;;;;;4.45;2.45;;;;;;;26.99;93.86;98947.07;1705479;82;21054;-64
2023/03/15 10:18:25;;;;;;;7.42;2.33;;;;;;;27.43;89.88;98956.61;1719546;81;21046;-64
2023/03/15 10:20:55;;;;;;;8.80;2.83;;;;;;;26.53;87.82;98963.66;1744649;80;21088;-63
2023/03/15 10:23:51;;;;;;;6.00;2.45;;;;;;;25.05;89.10;98966.66;1739453;81;21030;-63
2023/03/15 10:26:25;;;;;;;6.75;2.40;;;;;;;23.93;88.87;98976.28;1739713;80;21029;-63
2023/03/15 10:28:53;;;;;;;7.08;2.90;;;;;;;21.96;87.24;98989.06;1717140;82;21014;-63
2023/03/15 10:31:30;;;;;;;5.85;2.42;;;;;;;20.46;86.79;98981.48;1688027;83;21074;-62
2023/03/15 10:33:54;;;;;;;8.40;2.77;;;;;;;19.46;87.19;98992.52;1689264;84;20994;-62
2023/03/15 10:36:24;;;;;;;5.80;2.40;;;;;;;18.64;87.05;98993.18;1748438;80;20989;-62
2023/03/15 10:38:52;;;;;;;6.92;2.58;;;;;;;17.41;86.77;99001.50;1753607;81;20993;-62
2023/03/15 10:41:38;;;;;;;7.25;2.47;;;;;;;16.72;89.42;99001.63;1751654;80;21105;-62
2023/03/15 10:44:13;;;;;;;6.33;2.92;;;;;;;18.38;93.00;99008.30;1750409;80;21569;-62
2023/03/15 10:46:42;;;;;;;6.90;2.37;;;;;;;20.64;93.42;99003.55;1750961;80;22377;-63
2023/03/15 10:49:18;;;;;;;6.08;2.30;;;;;;;22.30;89.10;99012.94;1745772;80;21045;-63
2023/03/15 10:51:48;;;;;;;;;;;;;;;23.37;88.98;99017.15;1750904;80;21053;-63
2023/03/15 10:54:25;;;;;;;10.70;2.80;;;;;;;25.19;86.51;99021.95;1745405;80;20183;-64
2023/03/15 10:57:08;;;;;;;8.15;2.60;;;;;;;27.17;88.85;99018.95;1749776;80;21060;-62
2023/03/15 10:59:35;;;;;;;8.03;2.65;;;;;;;28.97;87.79;99011.39;1730049;80;21120;-64
2023/03/15 11:02:16;;;;;;;6.47;2.37;;;;;;;30.39;86.03;99019.08;1749883;80;21010;-64
2023/03/15 11:05:12;;;;;;;8.20;2.60;;;;;;;31.35;83.15;99021.85;1713969;82;21107;-63
2023/03/15 11:07:56;;;;;;;9.45;2.70;;;;;;;29.94;80.32;99027.19;1710391;83;21014;-62
2023/03/15 11:10:30;;;;;;;7.25;2.70;;;;;;;28.36;82.46;99034.39;1750501;80;20999;-62
2023/03/15 11:13:22;;;;;;;6.47;2.27;;;;;;;29.43;82.79;99022.58;1749958;80;21077;-62
2023/03/15 11:16:10;;;;;;;5.55;2.40;;;;;;;28.71;80.00;99031.88;1712030;83;21592;-63
2023/03/15 11:18:53;;;;;;;8.38;3.08;;;;;;;29.41;79.97;99022.81;1662690;84;21099;-64
2023/03/15 11:21:34;;;;;;;8.33;2.42;;;;;;;30.61;81.77;99028.11;1731432;81;21031;-64
2023/03/15 11:24:04;;;;;;;6.35;2.60;;;;;;;31.64;79.34;99027.56;1687150;83;21495;-63
2023/03/15 11:26:37;;;;;;;9.35;2.75;;;;;;;31.38;76.69;99025.48;1693872;84;21082;-62
2023/03/15 11:29:18;;;;;;;6.10;2.40;;;;;;;31.38;76.69;99025.48;1710420;81;21094;-63
2023/03/15 11:31:45;;;;;;;7.65;2.85;;;;;;;32.71;76.09;99038.58;1730403;81;21101;-64
2023/03/15 11:34:23;;;;;;;10.68;2.67;;;;;;;34.12;76.03;99024.59;1732656;81;21054;-63
2023/03/15 11:36:57;;;;;;;10.38;2.65;;;;;;;35.22;74.48;99035.37;1726488;81;21013;-65
2023/03/15 11:39:29;;;;;;;9.10;2.33;;;;;;;35.02;72.42;99038.58;1725872;82;21070;-64
2023/03/15 11:42:01;;;;;;;5.85;2.50;;;;;;;35.68;71.58;99030.55;1725306;82;21554;-65
2023/03/15 11:44:39;;;;;;;6.35;2.17;;;;;;;36.51;69.17;99039.86;1729082;81;20971;-62
2023/03/15 11:47:35;;;;;;;5.87;2.40;;;;;;;37.04;68.45;99035.41;1668316;85;21082;-62
2023/03/15 11:50:04;;;;;;;7.37;2.75;;;;;;;36.85;63.39;99035.52;1710560;81;21043;-62